Histria Prince — V7QT2 — position and weather

sailwx.info

Track history (hours):
 
Tides and Currents Weather Stations Pressure Air Temp Water Temp Dewpoint Dewpoint Depression Visibility Wind Speed Wind Dir Waves Ship Positions

Histria Prince

Last reported at 2017-Aug-17 19:34 UTC. Time now 2017-Sep-24 08:48 UTC.
Position N 25°33' W 079°30'.
Warning: this ship's position is 37 days out of date.

Length 179 m; draft 11 m.

Type: Ship (hazmat cat A). MMSI: 538003431.

Date/timePositionNaut miles runAvg speedWind from/ knotsBaromVisibWave heightAir tempDewpointWater temp
2017-Aug-17 19:34N 25°33' W 079°30'1 9.8
2017-Aug-17 19:30N 25°34' W 079°30'5 9.6
2017-Aug-17 19:00N 25°39' W 079°30'5 9.4
2017-Aug-17 18:30N 25°43' W 079°30'5 9.5
2017-Aug-17 17:59N 25°48' W 079°30'7 9.6
2017-Aug-17 17:14N 25°55' W 079°30'2 9.5
2017-Aug-17 17:00N 25°58' W 079°30'7 9.5
2017-Aug-17 16:14N 26°05' W 079°30'2 9.3
2017-Aug-17 16:00N 26°07' W 079°30'5 9.4
2017-Aug-17 15:30N 26°10' W 079°26'  
2017-Aug-08 07:03N 36°00' W 030°15'  
Track history (hours):
 
Tides and Currents Weather Stations Pressure Air Temp Water Temp Dewpoint Dewpoint Depression Visibility Wind Speed Wind Dir Waves Ship Positions

Histria Prince

Last reported at 2017-Aug-17 19:34 UTC. Time now 2017-Sep-24 08:48 UTC.
Position N 25°33' W 079°30'.
Warning: this ship's position is 37 days out of date.

Length 179 m; draft 11 m.

Type: Ship (hazmat cat A). MMSI: 538003431.

Date/timePositionNaut miles runAvg speedWind from/ knotsBaromVisibWave heightAir tempDewpointWater temp
2017-Aug-17 19:34N 25°33' W 079°30'1 9.8
2017-Aug-17 19:30N 25°34' W 079°30'5 9.6
2017-Aug-17 19:00N 25°39' W 079°30'5 9.4
2017-Aug-17 18:30N 25°43' W 079°30'5 9.5
2017-Aug-17 17:59N 25°48' W 079°30'7 9.6
2017-Aug-17 17:14N 25°55' W 079°30'2 9.5
2017-Aug-17 17:00N 25°58' W 079°30'7 9.5
2017-Aug-17 16:14N 26°05' W 079°30'2 9.3
2017-Aug-17 16:00N 26°07' W 079°30'5 9.4
2017-Aug-17 15:30N 26°10' W 079°26'  
2017-Aug-08 07:03N 36°00' W 030°15'  

Dump ship's entire track history